Trees, Louisiana
Current Conditions -  °F | °C
As of 9:53 PM on Thursday 18 Dec 2014 (Local Time) from KDTN Reporting Station
Overcast Overcast  
Wind Chill: 50°   Ceiling: 2100
Heat Index: 50°   Visibility: 10mi
Dew Point: 46°   Wind: 5mph
Humidity: 86%   Direction: 20°NNE
Pressure: 30.18"   Gusts: NA
Location:  32.8582°N, 93.9626°W
Report Text: KDTN 190353Z AUTO 02004KT 10SM BKN021 OVC032 10/08 A3018 RMK AO2 SLP218 T01000078
Loading
Personal Weather Stations






























Interactive Weather Map New forecast layout! Learn more

10-Day Weather Forecast

Advertisements
Track Severe Weather on mobile